createdAt,value
2023-04-13T00:00:50.713Z,3.95
2023-04-13T00:03:18.876Z,3.97
2023-04-13T00:05:47.068Z,3.85
2023-04-13T00:08:14.252Z,3.75
2023-04-13T00:10:42.015Z,4.40
2023-04-13T00:13:11.036Z,4.55
2023-04-13T00:15:42.230Z,3.85
2023-04-13T00:18:10.958Z,4.13
2023-04-13T00:20:39.215Z,4.20
2023-04-13T00:23:06.161Z,4.32
2023-04-13T00:25:33.134Z,4.20
2023-04-13T00:28:03.168Z,8.10
2023-04-13T00:30:30.525Z,6.80
2023-04-13T00:32:57.669Z,4.20
2023-04-13T00:35:28.017Z,4.78
2023-04-13T00:37:55.051Z,5.22
2023-04-13T00:40:22.103Z,4.55
2023-04-13T00:42:51.346Z,4.60
2023-04-13T00:45:19.317Z,4.32
2023-04-13T00:47:48.861Z,4.47
2023-04-13T00:50:23.688Z,4.00
2023-04-13T00:52:50.802Z,4.50
2023-04-13T00:55:21.725Z,4.88
2023-04-13T00:57:50.591Z,4.75
2023-04-13T01:00:18.103Z,4.18
2023-04-13T01:02:45.496Z,7.65
2023-04-13T01:05:15.659Z,10.23
2023-04-13T01:07:55.549Z,5.88
2023-04-13T01:10:46.725Z,4.80
2023-04-13T01:16:16.233Z,5.15
2023-04-13T01:18:49.077Z,4.80
2023-04-13T01:21:19.663Z,5.40
2023-04-13T01:24:02.009Z,5.40
2023-04-13T01:26:51.973Z,6.32
2023-04-13T01:29:19.785Z,6.25
2023-04-13T01:31:47.353Z,6.80
2023-04-13T01:34:14.452Z,6.90
2023-04-13T01:36:42.104Z,5.60
2023-04-13T01:39:09.443Z,4.53
2023-04-13T01:41:36.496Z,5.80
2023-04-13T01:44:03.753Z,5.80
2023-04-13T01:46:34.567Z,5.82
2023-04-13T01:49:03.114Z,6.38
2023-04-13T01:51:34.843Z,7.60
2023-04-13T01:54:16.021Z,6.50
2023-04-13T01:56:44.444Z,5.63
2023-04-13T01:59:12.976Z,5.00
2023-04-13T02:01:41.232Z,4.90
2023-04-13T02:04:08.524Z,4.50
2023-04-13T02:06:37.507Z,4.75
2023-04-13T02:09:06.847Z,4.72
2023-04-13T02:11:36.042Z,4.70
2023-04-13T02:14:04.205Z,4.70
2023-04-13T02:16:31.304Z,4.63
2023-04-13T02:18:58.505Z,4.40
2023-04-13T02:21:25.937Z,4.68
2023-04-13T02:23:53.910Z,4.10
2023-04-13T02:26:20.956Z,4.30
2023-04-13T02:28:49.568Z,4.10
2023-04-13T02:31:17.101Z,5.20
2023-04-13T02:33:44.814Z,4.38
2023-04-13T02:36:12.280Z,4.57
2023-04-13T02:38:39.277Z,4.80
2023-04-13T02:41:06.695Z,4.18
2023-04-13T02:43:34.446Z,5.20
2023-04-13T02:46:01.418Z,4.90
2023-04-13T02:48:28.381Z,5.03
2023-04-13T02:50:55.759Z,4.40
2023-04-13T02:53:23.546Z,4.85
2023-04-13T02:55:50.614Z,4.70
2023-04-13T02:58:17.777Z,5.72
2023-04-13T03:00:44.785Z,5.60
2023-04-13T03:03:11.863Z,5.10
2023-04-13T03:05:39.056Z,4.70
2023-04-13T03:08:06.421Z,4.93
2023-04-13T03:10:33.511Z,5.45
2023-04-13T03:13:00.537Z,5.35
2023-04-13T03:15:27.453Z,4.95
2023-04-13T03:17:54.459Z,5.38
2023-04-13T03:20:23.826Z,5.03
2023-04-13T03:22:51.738Z,4.90
2023-04-13T03:25:18.752Z,5.68
2023-04-13T03:27:45.704Z,11.23
2023-04-13T03:30:12.960Z,12.88
2023-04-13T03:32:40.129Z,5.55
2023-04-13T03:35:07.333Z,5.43
2023-04-13T03:37:40.534Z,8.30
2023-04-13T03:40:11.763Z,9.10
2023-04-13T03:42:39.059Z,8.35
2023-04-13T03:45:07.118Z,11.23
2023-04-13T03:47:34.215Z,16.52
2023-04-13T03:50:01.478Z,30.95
2023-04-13T03:52:28.497Z,21.23
2023-04-13T03:54:55.477Z,7.25
2023-04-13T03:57:22.871Z,12.95
2023-04-13T03:59:49.857Z,7.60
2023-04-13T04:02:17.034Z,6.25
2023-04-13T04:04:44.172Z,6.65
2023-04-13T04:07:11.633Z,7.10
2023-04-13T04:09:39.289Z,5.97
2023-04-13T04:12:06.387Z,8.55
2023-04-13T04:14:33.313Z,5.13
2023-04-13T04:17:00.428Z,5.57
2023-04-13T04:19:27.407Z,5.40
2023-04-13T04:21:58.014Z,5.90
2023-04-13T04:24:27.677Z,6.20
2023-04-13T04:26:55.649Z,5.30
2023-04-13T04:29:22.835Z,6.03
2023-04-13T04:31:53.945Z,5.60
2023-04-13T04:34:21.088Z,6.07
2023-04-13T04:36:52.137Z,5.82
2023-04-13T04:39:23.635Z,5.65
2023-04-13T04:42:04.278Z,6.15
2023-04-13T04:44:31.621Z,5.78
2023-04-13T04:47:02.942Z,6.57
2023-04-13T04:49:30.168Z,7.20
2023-04-13T04:51:58.277Z,5.28
2023-04-13T04:54:25.703Z,6.20
2023-04-13T04:56:52.762Z,6.40
2023-04-13T04:59:19.843Z,5.95
2023-04-13T05:01:49.807Z,5.60
2023-04-13T05:04:17.282Z,5.97
2023-04-13T05:06:44.937Z,6.93
2023-04-13T05:09:12.191Z,5.90
2023-04-13T05:11:39.392Z,5.93
2023-04-13T05:14:06.496Z,5.38
2023-04-13T05:16:34.636Z,6.55
2023-04-13T05:19:02.461Z,5.85
2023-04-13T05:21:29.585Z,6.32
2023-04-13T05:23:57.115Z,5.63
2023-04-13T05:26:25.630Z,6.00
2023-04-13T05:28:52.796Z,6.07
2023-04-13T05:31:20.496Z,6.60
2023-04-13T05:33:48.096Z,6.28
2023-04-13T05:36:15.038Z,6.00
2023-04-13T05:38:42.954Z,5.95
2023-04-13T05:41:10.553Z,5.45
2023-04-13T05:43:37.745Z,6.45
2023-04-13T05:46:04.928Z,5.25
2023-04-13T05:48:34.299Z,6.05
2023-04-13T05:51:01.714Z,4.95
2023-04-13T05:53:28.741Z,5.20
2023-04-13T05:55:55.989Z,5.28
2023-04-13T05:58:23.007Z,7.97
2023-04-13T06:00:58.672Z,5.90
2023-04-13T06:03:27.531Z,6.60
2023-04-13T06:05:54.899Z,4.57
2023-04-13T06:08:21.865Z,5.35
2023-04-13T06:10:49.178Z,4.93
2023-04-13T06:13:16.215Z,4.97
2023-04-13T06:15:45.523Z,5.05
2023-04-13T06:18:14.747Z,5.10
2023-04-13T06:20:41.674Z,4.97
2023-04-13T06:23:09.492Z,5.03
2023-04-13T06:25:36.502Z,4.30
2023-04-13T06:28:04.609Z,4.65
2023-04-13T06:30:31.707Z,5.75
2023-04-13T06:32:58.972Z,5.70
2023-04-13T06:35:26.134Z,5.05
2023-04-13T06:37:53.170Z,4.40
2023-04-13T06:40:20.621Z,4.82
2023-04-13T06:42:47.667Z,5.05
2023-04-13T06:45:18.787Z,5.35
2023-04-13T06:47:45.983Z,4.97
2023-04-13T06:50:15.721Z,5.13
2023-04-13T06:52:44.340Z,4.95
2023-04-13T06:55:11.373Z,4.53
2023-04-13T06:57:41.165Z,4.28
2023-04-13T07:00:26.486Z,4.50
2023-04-13T07:02:58.445Z,5.07
2023-04-13T07:05:29.068Z,4.97
2023-04-13T07:07:57.241Z,5.13
2023-04-13T07:10:24.404Z,5.38
2023-04-13T07:12:51.494Z,4.40
2023-04-13T07:15:18.454Z,4.90
2023-04-13T07:17:46.199Z,5.78
2023-04-13T07:20:13.594Z,5.15
2023-04-13T07:22:40.816Z,5.28
2023-04-13T07:25:08.544Z,4.85
2023-04-13T07:27:35.581Z,5.32
2023-04-13T07:30:02.574Z,5.32
2023-04-13T07:32:31.499Z,5.13
2023-04-13T07:35:01.688Z,6.20
2023-04-13T07:37:29.881Z,5.03
2023-04-13T07:39:57.066Z,5.82
2023-04-13T07:42:25.210Z,5.75
2023-04-13T07:44:56.099Z,5.38
2023-04-13T07:49:50.048Z,5.05
2023-04-13T07:52:17.102Z,5.25
2023-04-13T07:54:44.129Z,5.05
2023-04-13T07:57:11.052Z,5.57
2023-04-13T07:59:37.982Z,5.50
2023-04-13T08:02:05.739Z,5.90
2023-04-13T08:04:33.751Z,5.38
2023-04-13T08:07:07.364Z,6.82
2023-04-13T08:09:40.577Z,5.30
2023-04-13T08:12:08.594Z,5.45
2023-04-13T08:14:35.682Z,5.78
2023-04-13T08:17:04.411Z,5.65
2023-04-13T08:19:31.696Z,5.30
2023-04-13T08:21:59.200Z,5.57
2023-04-13T08:24:26.978Z,5.40
2023-04-13T08:26:55.215Z,5.97
2023-04-13T08:29:24.222Z,5.30
2023-04-13T08:31:51.562Z,5.72
2023-04-13T08:34:18.858Z,6.30
2023-04-13T08:36:48.678Z,5.00
2023-04-13T08:39:16.688Z,5.60
2023-04-13T08:41:47.952Z,5.90
2023-04-13T08:44:15.781Z,5.93
2023-04-13T08:46:45.518Z,5.82
2023-04-13T08:49:13.195Z,5.32
2023-04-13T08:51:43.586Z,5.88
2023-04-13T08:54:13.038Z,5.38
2023-04-13T08:56:46.547Z,5.50
2023-04-13T08:59:17.255Z,5.90
2023-04-13T09:01:49.280Z,6.07
2023-04-13T09:04:19.231Z,5.57
2023-04-13T09:06:51.102Z,5.68
2023-04-13T09:09:20.789Z,5.53
2023-04-13T09:11:49.939Z,6.10
2023-04-13T09:14:22.486Z,5.32
2023-04-13T09:19:18.126Z,5.80
2023-04-13T09:21:45.959Z,5.30
2023-04-13T09:24:13.131Z,5.80
2023-04-13T09:26:45.027Z,6.13
2023-04-13T09:29:17.546Z,5.63
2023-04-13T09:31:46.106Z,5.70
2023-04-13T09:34:14.000Z,6.57
2023-04-13T09:36:53.604Z,6.15
2023-04-13T09:39:29.160Z,6.65
2023-04-13T09:41:58.330Z,7.18
2023-04-13T09:44:28.557Z,5.80
2023-04-13T09:47:00.298Z,6.00
2023-04-13T09:49:41.215Z,5.95
2023-04-13T09:52:25.206Z,6.05
2023-04-13T09:54:52.156Z,6.68
2023-04-13T09:57:30.273Z,6.10
2023-04-13T10:00:01.159Z,6.18
2023-04-13T10:02:29.224Z,5.70
2023-04-13T10:04:56.833Z,6.10
2023-04-13T10:07:26.967Z,7.57
2023-04-13T10:09:54.611Z,7.25
2023-04-13T10:12:23.143Z,7.38
2023-04-13T10:14:55.945Z,6.40
2023-04-13T10:17:22.927Z,6.65
2023-04-13T10:19:52.964Z,6.30
2023-04-13T10:22:22.890Z,6.35
2023-04-13T10:24:51.458Z,6.15
2023-04-13T10:27:23.507Z,13.65
2023-04-13T10:29:51.104Z,7.05
2023-04-13T10:32:31.924Z,6.38
2023-04-13T10:35:10.202Z,7.13
2023-04-13T10:37:40.249Z,7.63
2023-04-13T10:40:14.597Z,5.77
2023-04-13T10:42:52.442Z,6.15
2023-04-13T10:45:28.207Z,6.20
2023-04-13T10:47:56.433Z,8.73
2023-04-13T10:50:24.911Z,5.63
2023-04-13T10:53:06.908Z,6.15
2023-04-13T10:55:35.377Z,5.72
2023-04-13T10:58:13.345Z,5.88
2023-04-13T11:00:46.267Z,6.25
2023-04-13T11:03:17.708Z,6.07
2023-04-13T11:05:57.559Z,6.07
2023-04-13T11:08:24.681Z,5.95
2023-04-13T11:10:53.305Z,6.68
2023-04-13T11:13:21.043Z,6.35
2023-04-13T11:15:49.597Z,7.65
2023-04-13T11:18:29.516Z,7.22
2023-04-13T11:20:56.959Z,6.72
2023-04-13T11:23:24.730Z,6.90
2023-04-13T11:25:55.141Z,8.07
2023-04-13T11:28:23.652Z,7.90
2023-04-13T11:30:57.400Z,7.55
2023-04-13T11:33:25.717Z,7.35
2023-04-13T11:35:54.124Z,8.05
2023-04-13T11:38:21.359Z,6.68
2023-04-13T11:40:48.685Z,6.57
2023-04-13T11:43:18.969Z,7.68
2023-04-13T11:45:47.394Z,8.10
2023-04-13T11:48:15.138Z,8.30
2023-04-13T11:50:43.198Z,7.35
2023-04-13T11:53:10.506Z,7.28
2023-04-13T11:58:11.196Z,13.02
2023-04-13T12:00:42.131Z,8.70
2023-04-13T12:05:50.023Z,8.43
2023-04-13T12:08:24.663Z,8.10
2023-04-13T12:13:50.297Z,8.05
2023-04-13T12:17:00.073Z,9.05
2023-04-13T12:19:26.290Z,8.25
2023-04-13T12:21:57.795Z,8.18
2023-04-13T12:24:38.152Z,7.90
2023-04-13T12:29:41.865Z,8.00
2023-04-13T12:32:15.758Z,7.47
2023-04-13T12:34:43.508Z,7.20
2023-04-13T12:37:13.546Z,7.78
2023-04-13T12:39:42.388Z,7.78
2023-04-13T12:42:09.346Z,7.90
2023-04-13T12:44:36.330Z,7.38
2023-04-13T12:47:03.355Z,7.25
2023-04-13T12:49:30.450Z,5.65
2023-04-13T12:51:57.481Z,6.22
2023-04-13T12:54:24.752Z,5.28
2023-04-13T12:56:52.254Z,5.60
2023-04-13T12:59:21.996Z,6.15
2023-04-13T13:01:49.592Z,6.40
2023-04-13T13:04:17.111Z,5.55
2023-04-13T13:06:44.160Z,5.03
2023-04-13T13:09:11.146Z,5.43
2023-04-13T13:11:38.249Z,4.43
2023-04-13T13:14:05.598Z,4.00
2023-04-13T13:16:32.697Z,4.32
2023-04-13T13:18:59.804Z,4.35
2023-04-13T13:21:27.122Z,4.35
2023-04-13T13:23:54.070Z,4.10
2023-04-13T13:26:24.434Z,4.18
2023-04-13T13:28:54.445Z,4.15
2023-04-13T13:31:21.490Z,4.43
2023-04-13T13:33:48.488Z,4.28
2023-04-13T13:36:15.669Z,4.28
2023-04-13T13:38:43.384Z,4.40
2023-04-13T13:41:11.043Z,6.20
2023-04-13T13:43:38.964Z,4.70
2023-04-13T13:46:06.994Z,4.30
2023-04-13T13:48:34.122Z,4.10
2023-04-13T13:51:01.177Z,4.38
2023-04-13T13:53:28.147Z,4.10
2023-04-13T13:55:56.460Z,5.45
2023-04-13T13:58:23.499Z,5.88
2023-04-13T14:00:50.802Z,4.53
2023-04-13T14:03:18.556Z,5.22
2023-04-13T14:05:45.757Z,5.65
2023-04-13T14:08:12.806Z,5.75
2023-04-13T14:10:40.269Z,4.95
2023-04-13T14:13:07.647Z,4.70
2023-04-13T14:15:34.705Z,4.53
2023-04-13T14:18:11.062Z,4.30
2023-04-13T14:20:39.423Z,3.45
2023-04-13T14:23:07.219Z,3.50
2023-04-13T14:25:34.282Z,3.80
2023-04-13T14:28:01.462Z,4.00
2023-04-13T14:30:28.862Z,3.90
2023-04-13T14:32:56.825Z,3.55
2023-04-13T14:35:24.213Z,4.05
2023-04-13T14:37:51.496Z,5.45
2023-04-13T14:40:22.082Z,4.03
2023-04-13T14:42:51.003Z,3.97
2023-04-13T14:45:18.581Z,3.50
2023-04-13T14:47:45.714Z,4.30
2023-04-13T14:50:13.223Z,4.53
2023-04-13T14:52:44.578Z,5.43
2023-04-13T14:55:12.219Z,4.88
2023-04-13T14:57:39.612Z,3.72
2023-04-13T15:00:22.057Z,4.95
2023-04-13T15:02:50.998Z,4.57
2023-04-13T15:05:19.024Z,3.88
2023-04-13T15:07:46.244Z,4.15
2023-04-13T15:10:13.228Z,3.78
2023-04-13T15:12:41.480Z,3.65
2023-04-13T15:15:09.100Z,3.72
2023-04-13T15:17:36.132Z,3.60
2023-04-13T15:20:07.181Z,3.92
2023-04-13T15:22:36.182Z,4.00
2023-04-13T15:25:03.577Z,4.00
2023-04-13T15:27:30.777Z,4.20
2023-04-13T15:30:00.087Z,4.22
2023-04-13T15:32:27.259Z,3.95
2023-04-13T15:34:56.466Z,3.55
2023-04-13T15:37:26.426Z,3.70
2023-04-13T15:39:54.752Z,3.67
2023-04-13T15:42:22.348Z,3.90
2023-04-13T15:44:51.172Z,3.70
2023-04-13T15:47:18.100Z,3.67
2023-04-13T15:49:45.036Z,3.85
2023-04-13T15:52:11.987Z,4.18
2023-04-13T15:54:38.940Z,4.32
2023-04-13T15:57:06.784Z,4.50
2023-04-13T15:59:34.914Z,3.88
2023-04-13T16:02:02.373Z,3.90
2023-04-13T16:04:29.625Z,3.60
2023-04-13T16:07:11.832Z,3.95
2023-04-13T16:09:46.862Z,4.10
2023-04-13T16:12:14.255Z,3.50
2023-04-13T16:14:45.464Z,3.53
2023-04-13T16:17:15.089Z,4.10
2023-04-13T16:19:46.866Z,4.07
2023-04-13T16:22:14.060Z,4.00
2023-04-13T16:24:42.103Z,4.13
2023-04-13T16:27:10.367Z,3.25
2023-04-13T16:29:37.359Z,3.60
2023-04-13T16:32:04.391Z,4.03
2023-04-13T16:34:31.324Z,3.78
2023-04-13T16:36:58.400Z,3.78
2023-04-13T16:39:25.508Z,3.78
2023-04-13T16:41:52.641Z,3.33
2023-04-13T16:44:19.844Z,3.72
2023-04-13T16:46:46.856Z,3.50
2023-04-13T16:49:13.825Z,3.33
2023-04-13T16:51:40.876Z,3.72
2023-04-13T16:54:07.876Z,3.67
2023-04-13T16:56:34.885Z,3.50
2023-04-13T16:59:02.365Z,3.70
2023-04-13T17:01:30.963Z,3.83
2023-04-13T17:03:58.241Z,4.07
2023-04-13T17:06:26.726Z,4.82
2023-04-13T17:08:53.796Z,5.50
2023-04-13T17:11:20.894Z,4.75
2023-04-13T17:13:47.836Z,4.13
2023-04-13T17:16:15.016Z,4.03
2023-04-13T17:18:42.909Z,3.88
2023-04-13T17:21:09.868Z,4.10
2023-04-13T17:23:36.852Z,3.72
2023-04-13T17:26:03.907Z,3.60
2023-04-13T17:28:30.963Z,3.70
2023-04-13T17:30:57.964Z,3.10
2023-04-13T17:33:27.998Z,3.42
2023-04-13T17:35:55.609Z,3.57
2023-04-13T17:38:22.649Z,3.20
2023-04-13T17:40:51.053Z,3.45
2023-04-13T17:43:25.483Z,3.65
2023-04-13T17:45:52.447Z,3.67
2023-04-13T17:48:19.399Z,3.13
2023-04-13T17:50:46.438Z,3.85
2023-04-13T17:53:13.415Z,3.40
2023-04-13T17:56:13.393Z,3.40
2023-04-13T17:58:40.333Z,3.65
2023-04-13T18:01:09.180Z,3.33
2023-04-13T18:03:36.815Z,4.13
2023-04-13T18:06:05.517Z,3.70
2023-04-13T18:08:32.432Z,3.10
2023-04-13T18:10:59.540Z,3.47
2023-04-13T18:13:27.608Z,3.97
2023-04-13T18:15:55.611Z,4.28
2023-04-13T18:18:24.504Z,4.00
2023-04-13T18:20:52.560Z,3.95
2023-04-13T18:23:21.468Z,4.07
2023-04-13T18:25:49.276Z,4.00
2023-04-13T18:28:17.514Z,3.70
2023-04-13T18:30:45.744Z,3.90
2023-04-13T18:33:12.916Z,4.47
2023-04-13T18:35:44.174Z,4.20
2023-04-13T18:38:11.319Z,4.28
2023-04-13T18:40:39.856Z,4.18
2023-04-13T18:43:07.849Z,4.25
2023-04-13T18:45:35.194Z,4.03
2023-04-13T18:48:02.585Z,4.22
2023-04-13T18:50:29.659Z,4.10
2023-04-13T18:52:56.800Z,3.70
2023-04-13T18:55:28.681Z,3.75
2023-04-13T18:57:56.394Z,4.13
2023-04-13T19:00:23.714Z,3.83
2023-04-13T19:02:54.474Z,4.03
2023-04-13T19:08:00.009Z,4.60
2023-04-13T19:10:31.632Z,4.20
2023-04-13T19:12:58.959Z,4.57
2023-04-13T19:15:26.079Z,4.20
2023-04-13T19:17:53.146Z,4.47
2023-04-13T19:20:25.253Z,5.03
2023-04-13T19:22:52.307Z,6.57
2023-04-13T19:25:19.446Z,5.25
2023-04-13T19:27:47.374Z,7.18
2023-04-13T19:30:16.204Z,4.82
2023-04-13T19:32:45.263Z,4.65
2023-04-13T19:35:12.986Z,5.45
2023-04-13T19:37:40.680Z,4.65
2023-04-13T19:40:09.863Z,5.25
2023-04-13T19:42:37.370Z,4.85
2023-04-13T19:45:04.770Z,5.22
2023-04-13T19:47:31.778Z,4.43
2023-04-13T19:49:58.769Z,4.78
2023-04-13T19:52:25.874Z,5.10
2023-04-13T19:54:52.834Z,5.22
2023-04-13T19:57:19.800Z,4.43
2023-04-13T19:59:46.763Z,5.43
2023-04-13T20:02:13.848Z,8.27
2023-04-13T20:04:41.079Z,5.18
2023-04-13T20:07:08.227Z,5.80
2023-04-13T20:09:35.163Z,5.07
2023-04-13T20:12:02.225Z,5.00
2023-04-13T20:14:29.234Z,4.88
2023-04-13T20:16:56.593Z,5.45
2023-04-13T20:19:31.979Z,5.50
2023-04-13T20:22:02.376Z,5.75
2023-04-13T20:24:29.407Z,5.93
2023-04-13T20:26:56.372Z,5.30
2023-04-13T20:29:26.866Z,5.32
2023-04-13T20:31:54.280Z,5.32
2023-04-13T20:34:22.236Z,4.55
2023-04-13T20:36:49.370Z,5.57
2023-04-13T20:39:22.093Z,5.93
2023-04-13T20:41:55.184Z,5.50
2023-04-13T20:44:25.920Z,5.40
2023-04-13T20:46:56.084Z,5.22
2023-04-13T20:49:25.493Z,5.53
2023-04-13T20:51:56.510Z,5.70
2023-04-13T20:56:50.704Z,6.03
2023-04-13T20:59:18.582Z,7.95
2023-04-13T21:01:46.074Z,5.30
2023-04-13T21:04:13.289Z,5.75
2023-04-13T21:06:40.644Z,5.88
2023-04-13T21:09:08.850Z,5.65
2023-04-13T21:11:36.179Z,4.85
2023-04-13T21:14:04.073Z,5.60
2023-04-13T21:16:31.552Z,4.97
2023-04-13T21:18:58.608Z,4.90
2023-04-13T21:21:27.807Z,5.40
2023-04-13T21:23:54.875Z,4.57
2023-04-13T21:26:21.890Z,4.72
2023-04-13T21:28:48.812Z,4.85
2023-04-13T21:31:15.984Z,4.60
2023-04-13T21:33:43.116Z,5.63
2023-04-13T21:41:19.251Z,5.22
2023-04-13T21:43:46.961Z,4.90
2023-04-13T21:46:15.421Z,4.53
2023-04-13T21:48:42.415Z,4.70
2023-04-13T21:51:10.013Z,4.75
2023-04-13T21:53:37.892Z,4.90
2023-04-13T21:56:05.519Z,4.75
2023-04-13T21:58:39.601Z,4.50
2023-04-13T22:01:07.344Z,5.00
2023-04-13T22:03:38.677Z,4.85
2023-04-13T22:06:08.620Z,4.80
2023-04-13T22:08:36.224Z,4.43
2023-04-13T22:11:04.069Z,4.72
2023-04-13T22:13:31.429Z,5.15
2023-04-13T22:15:58.510Z,4.50
2023-04-13T22:18:26.530Z,4.63
2023-04-13T22:20:53.650Z,5.70
2023-04-13T22:23:20.579Z,5.30
2023-04-13T22:26:01.812Z,5.30
2023-04-13T22:28:29.821Z,4.90
2023-04-13T22:30:57.316Z,4.68
2023-04-13T22:33:24.420Z,5.03
2023-04-13T22:35:52.005Z,4.85
2023-04-13T22:38:19.648Z,4.95
2023-04-13T22:40:46.574Z,5.05
2023-04-13T22:43:13.695Z,5.15
2023-04-13T22:45:40.794Z,5.63
2023-04-13T22:48:07.751Z,5.18
2023-04-13T22:50:38.005Z,5.22
2023-04-13T22:53:05.110Z,5.78
2023-04-13T22:55:39.486Z,5.75
2023-04-13T22:58:06.837Z,5.50
2023-04-13T23:00:33.830Z,5.35
2023-04-13T23:03:01.296Z,5.50
2023-04-13T23:05:28.401Z,5.20
2023-04-13T23:07:55.451Z,4.68
2023-04-13T23:10:22.391Z,5.38
2023-04-13T23:12:49.418Z,5.22
2023-04-13T23:15:16.634Z,5.57
2023-04-13T23:17:43.586Z,5.22
2023-04-13T23:20:11.083Z,4.70
2023-04-13T23:22:38.012Z,5.13
2023-04-13T23:25:06.560Z,4.85
2023-04-13T23:27:33.525Z,4.80
2023-04-13T23:30:00.490Z,5.43
2023-04-13T23:32:27.489Z,4.88
2023-04-13T23:34:55.128Z,4.88
2023-04-13T23:37:22.103Z,5.38
2023-04-13T23:39:49.850Z,5.50
2023-04-13T23:42:17.174Z,5.20
2023-04-13T23:44:44.166Z,5.30
2023-04-13T23:47:11.251Z,5.55
2023-04-13T23:49:38.350Z,4.63
2023-04-13T23:52:07.605Z,5.38
2023-04-13T23:54:34.671Z,5.35
2023-04-13T23:57:01.779Z,4.95
2023-04-13T23:59:28.723Z,5.35
